AVA79 SKCL-SKBO
Flight info
| Callsign | AVA79 |
|---|---|
| Flight time | 0h 31m |
| Altitude | 23000 |
| Route | ULQ1K ULQ W1 TOLIM TOLIM5E |
| Aircraft | A320/M-SDE3FGHIRWY/LB1 |
Departure
| Time | 2026-04-24 00:21 |
|---|---|
| Airport | Alfonso Bonilla Aragon International Airport (SKCL) |
Arrival
| Time | 2026-04-24 00:53 |
|---|---|
| Airport | El Dorado International Airport (SKBO) |
| Time | Latitude | Longitude | Altitude | Speed | Heading |
|---|---|---|---|---|---|
| 2026-04-23 23:58 | 3.53856 | -76.38739 | 3163 ft | 0 kts | 201° |
| 2026-04-24 00:11 | 3.53858 | -76.38739 | 3135 ft | 2 kts | 201° |
| 2026-04-24 00:11 | 3.53883 | -76.38729 | 3165 ft | 4 kts | 196° |
| 2026-04-24 00:11 | 3.53907 | -76.38728 | 3166 ft | 4 kts | 147° |
| 2026-04-24 00:12 | 3.53919 | -76.38744 | 3163 ft | 1 kts | 95° |
| 2026-04-24 00:12 | 3.53919 | -76.38749 | 3163 ft | 0 kts | 95° |
| 2026-04-24 00:15 | 3.53918 | -76.38733 | 3163 ft | 7 kts | 95° |
| 2026-04-24 00:15 | 3.53905 | -76.38660 | 3163 ft | 13 kts | 119° |
| 2026-04-24 00:15 | 3.53808 | -76.38590 | 3163 ft | 21 kts | 146° |
| 2026-04-24 00:15 | 3.53694 | -76.38513 | 3163 ft | 19 kts | 145° |
| 2026-04-24 00:16 | 3.53587 | -76.38457 | 3161 ft | 15 kts | 185° |
| 2026-04-24 00:16 | 3.53494 | -76.38472 | 3161 ft | 10 kts | 191° |
| 2026-04-24 00:16 | 3.53448 | -76.38481 | 3161 ft | 5 kts | 190° |
| 2026-04-24 00:16 | 3.53419 | -76.38486 | 3161 ft | 3 kts | 190° |
| 2026-04-24 00:17 | 3.53402 | -76.38489 | 3161 ft | 2 kts | 190° |
| 2026-04-24 00:17 | 3.53393 | -76.38491 | 3161 ft | 0 kts | 190° |
| 2026-04-24 00:17 | 3.53392 | -76.38491 | 3161 ft | 0 kts | 190° |
| 2026-04-24 00:17 | 3.53386 | -76.38492 | 3161 ft | 4 kts | 190° |
| 2026-04-24 00:18 | 3.53324 | -76.38503 | 3161 ft | 14 kts | 189° |
| 2026-04-24 00:18 | 3.53238 | -76.38517 | 3162 ft | 13 kts | 189° |
| 2026-04-24 00:18 | 3.53161 | -76.38531 | 3161 ft | 10 kts | 189° |
| 2026-04-24 00:18 | 3.53102 | -76.38541 | 3162 ft | 8 kts | 189° |
| 2026-04-24 00:19 | 3.53056 | -76.38549 | 3163 ft | 6 kts | 189° |
| 2026-04-24 00:19 | 3.53021 | -76.38554 | 3162 ft | 4 kts | 180° |
| 2026-04-24 00:19 | 3.53003 | -76.38536 | 3161 ft | 4 kts | 111° |
| 2026-04-24 00:19 | 3.52996 | -76.38511 | 3160 ft | 4 kts | 105° |
| 2026-04-24 00:20 | 3.52990 | -76.38487 | 3162 ft | 4 kts | 101° |
| 2026-04-24 00:20 | 3.53000 | -76.38429 | 3159 ft | 7 kts | 68° |
| 2026-04-24 00:20 | 3.53047 | -76.38387 | 3157 ft | 13 kts | 10° |
| 2026-04-24 00:20 | 3.53270 | -76.38349 | 3159 ft | 65 kts | 10° |
| 2026-04-24 00:21 | 3.53932 | -76.38234 | 3167 ft | 126 kts | 10° |
| 2026-04-24 00:21 | 3.54973 | -76.38058 | 3191 ft | 173 kts | 7° |
| 2026-04-24 00:21 | 3.56153 | -76.37875 | 3891 ft | 171 kts | 7° |
| 2026-04-24 00:21 | 3.57328 | -76.37698 | 4592 ft | 171 kts | 7° |
| 2026-04-24 00:22 | 3.58499 | -76.37515 | 5207 ft | 171 kts | 9° |
| 2026-04-24 00:22 | 3.59734 | -76.37309 | 5477 ft | 191 kts | 10° |
| 2026-04-24 00:22 | 3.61114 | -76.37054 | 5683 ft | 213 kts | 10° |
| 2026-04-24 00:22 | 3.62608 | -76.36776 | 6141 ft | 221 kts | 10° |
| 2026-04-24 00:23 | 3.64126 | -76.36469 | 6709 ft | 224 kts | 14° |
| 2026-04-24 00:23 | 3.65695 | -76.36021 | 6989 ft | 246 kts | 17° |
| 2026-04-24 00:23 | 3.66813 | -76.35671 | 7196 ft | 262 kts | 17° |
| 2026-04-24 00:23 | 3.68618 | -76.35090 | 7620 ft | 280 kts | 18° |
| 2026-04-24 00:24 | 3.71146 | -76.34271 | 8559 ft | 290 kts | 18° |
| 2026-04-24 00:24 | 3.72419 | -76.33861 | 9059 ft | 293 kts | 18° |
| 2026-04-24 00:24 | 3.74384 | -76.33235 | 9846 ft | 298 kts | 17° |
| 2026-04-24 00:24 | 3.76390 | -76.32603 | 10338 ft | 312 kts | 17° |
| 2026-04-24 00:25 | 3.78534 | -76.31931 | 10613 ft | 332 kts | 17° |
| 2026-04-24 00:25 | 3.80767 | -76.31232 | 11193 ft | 340 kts | 17° |
| 2026-04-24 00:25 | 3.83039 | -76.30522 | 11884 ft | 344 kts | 17° |
| 2026-04-24 00:25 | 3.85344 | -76.29803 | 12586 ft | 348 kts | 16° |
| 2026-04-24 00:26 | 3.87670 | -76.29077 | 13278 ft | 352 kts | 16° |
| 2026-04-24 00:26 | 3.90017 | -76.28343 | 13952 ft | 356 kts | 16° |
| 2026-04-24 00:26 | 3.92393 | -76.27600 | 14547 ft | 359 kts | 16° |
| 2026-04-24 00:26 | 3.94791 | -76.26850 | 15143 ft | 363 kts | 16° |
| 2026-04-24 00:27 | 3.97218 | -76.26092 | 15723 ft | 367 kts | 16° |
| 2026-04-24 00:27 | 3.99673 | -76.25324 | 16300 ft | 371 kts | 17° |
| 2026-04-24 00:27 | 4.02148 | -76.24551 | 16858 ft | 374 kts | 17° |
| 2026-04-24 00:27 | 4.04635 | -76.23738 | 17411 ft | 378 kts | 21° |
| 2026-04-24 00:28 | 4.06969 | -76.22493 | 17960 ft | 383 kts | 35° |
| 2026-04-24 00:28 | 4.08982 | -76.20739 | 18486 ft | 387 kts | 48° |
| 2026-04-24 00:28 | 4.10561 | -76.18550 | 18964 ft | 390 kts | 62° |
| 2026-04-24 00:28 | 4.11660 | -76.16055 | 19465 ft | 392 kts | 69° |
| 2026-04-24 00:29 | 4.12650 | -76.13496 | 19975 ft | 395 kts | 69° |
| 2026-04-24 00:29 | 4.13644 | -76.10918 | 20460 ft | 398 kts | 69° |
| 2026-04-24 00:29 | 4.14643 | -76.08323 | 20965 ft | 400 kts | 69° |
| 2026-04-24 00:29 | 4.15646 | -76.05715 | 21499 ft | 403 kts | 68° |
| 2026-04-24 00:30 | 4.16658 | -76.03088 | 22029 ft | 405 kts | 68° |
| 2026-04-24 00:30 | 4.17676 | -76.00457 | 22569 ft | 407 kts | 68° |
| 2026-04-24 00:30 | 4.18703 | -75.97804 | 22934 ft | 409 kts | 68° |
| 2026-04-24 00:30 | 4.19727 | -75.95154 | 23025 ft | 402 kts | 68° |
| 2026-04-24 00:31 | 4.20716 | -75.92588 | 23075 ft | 390 kts | 68° |
| 2026-04-24 00:31 | 4.21686 | -75.90073 | 23073 ft | 386 kts | 68° |
| 2026-04-24 00:31 | 4.22649 | -75.87607 | 23066 ft | 384 kts | 67° |
| 2026-04-24 00:31 | 4.23630 | -75.85119 | 23065 ft | 384 kts | 67° |
| 2026-04-24 00:32 | 4.24615 | -75.82634 | 23064 ft | 384 kts | 67° |
| 2026-04-24 00:32 | 4.25604 | -75.80144 | 23064 ft | 384 kts | 67° |
| 2026-04-24 00:32 | 4.26588 | -75.77659 | 23074 ft | 384 kts | 67° |
| 2026-04-24 00:32 | 4.27572 | -75.75165 | 23068 ft | 385 kts | 67° |
| 2026-04-24 00:33 | 4.28553 | -75.72665 | 23066 ft | 385 kts | 67° |
| 2026-04-24 00:33 | 4.29535 | -75.70166 | 23063 ft | 385 kts | 67° |
| 2026-04-24 00:33 | 4.30508 | -75.67629 | 23065 ft | 395 kts | 68° |
| 2026-04-24 00:33 | 4.31486 | -75.65091 | 23064 ft | 388 kts | 68° |
| 2026-04-24 00:34 | 4.32469 | -75.62587 | 23074 ft | 386 kts | 67° |
| 2026-04-24 00:34 | 4.33462 | -75.60089 | 23076 ft | 386 kts | 67° |
| 2026-04-24 00:34 | 4.34458 | -75.57591 | 23079 ft | 385 kts | 67° |
| 2026-04-24 00:34 | 4.35448 | -75.55099 | 23082 ft | 385 kts | 67° |
| 2026-04-24 00:35 | 4.36433 | -75.52606 | 23087 ft | 385 kts | 67° |
| 2026-04-24 00:35 | 4.37424 | -75.50113 | 23092 ft | 385 kts | 65° |
| 2026-04-24 00:35 | 4.38658 | -75.47741 | 23092 ft | 384 kts | 59° |
| 2026-04-24 00:35 | 4.39955 | -75.45402 | 23094 ft | 384 kts | 60° |
| 2026-04-24 00:36 | 4.41203 | -75.43031 | 23077 ft | 384 kts | 62° |
| 2026-04-24 00:36 | 4.42400 | -75.40636 | 23073 ft | 384 kts | 63° |
| 2026-04-24 00:36 | 4.43567 | -75.38236 | 23079 ft | 384 kts | 63° |
| 2026-04-24 00:36 | 4.44733 | -75.35822 | 23063 ft | 384 kts | 63° |
| 2026-04-24 00:37 | 4.45902 | -75.33415 | 23042 ft | 384 kts | 63° |
| 2026-04-24 00:37 | 4.47079 | -75.31009 | 23031 ft | 384 kts | 63° |
| 2026-04-24 00:37 | 4.48248 | -75.28631 | 23024 ft | 385 kts | 63° |
| 2026-04-24 00:37 | 4.49437 | -75.26222 | 23017 ft | 385 kts | 63° |
| 2026-04-24 00:38 | 4.50629 | -75.23817 | 23009 ft | 384 kts | 63° |
| 2026-04-24 00:38 | 4.51821 | -75.21422 | 23005 ft | 384 kts | 62° |
| 2026-04-24 00:38 | 4.53017 | -75.19020 | 23001 ft | 384 kts | 62° |
| 2026-04-24 00:38 | 4.54206 | -75.16622 | 23001 ft | 384 kts | 63° |
| 2026-04-24 00:39 | 4.55390 | -75.14225 | 23004 ft | 384 kts | 63° |
| 2026-04-24 00:39 | 4.56577 | -75.11823 | 23008 ft | 384 kts | 63° |
| 2026-04-24 00:39 | 4.57762 | -75.09426 | 23020 ft | 384 kts | 63° |
| 2026-04-24 00:39 | 4.58943 | -75.07032 | 22892 ft | 380 kts | 63° |
| 2026-04-24 00:40 | 4.60102 | -75.04681 | 22635 ft | 372 kts | 63° |
| 2026-04-24 00:40 | 4.61240 | -75.02377 | 22384 ft | 367 kts | 63° |
| 2026-04-24 00:40 | 4.62371 | -75.00092 | 22145 ft | 364 kts | 63° |
| 2026-04-24 00:40 | 4.63497 | -74.97820 | 21931 ft | 363 kts | 63° |
| 2026-04-24 00:41 | 4.64601 | -74.95590 | 21698 ft | 361 kts | 63° |
| 2026-04-24 00:41 | 4.65713 | -74.93338 | 21453 ft | 360 kts | 63° |
| 2026-04-24 00:41 | 4.66828 | -74.91081 | 21210 ft | 359 kts | 63° |
| 2026-04-24 00:41 | 4.67933 | -74.88845 | 20968 ft | 357 kts | 63° |
| 2026-04-24 00:42 | 4.69036 | -74.86614 | 20729 ft | 356 kts | 63° |
| 2026-04-24 00:42 | 4.70135 | -74.84392 | 20497 ft | 355 kts | 63° |
| 2026-04-24 00:42 | 4.71225 | -74.82188 | 20254 ft | 351 kts | 63° |
| 2026-04-24 00:42 | 4.72310 | -74.79999 | 19843 ft | 350 kts | 63° |
| 2026-04-24 00:43 | 4.73393 | -74.77810 | 19406 ft | 351 kts | 63° |
| 2026-04-24 00:43 | 4.74477 | -74.75616 | 18978 ft | 352 kts | 63° |
| 2026-04-24 00:43 | 4.75569 | -74.73404 | 18326 ft | 360 kts | 63° |
| 2026-04-24 00:43 | 4.76691 | -74.71131 | 17709 ft | 364 kts | 63° |
| 2026-04-24 00:44 | 4.77814 | -74.68856 | 17277 ft | 363 kts | 63° |
| 2026-04-24 00:44 | 4.78928 | -74.66596 | 16870 ft | 361 kts | 63° |
| 2026-04-24 00:44 | 4.80040 | -74.64341 | 16486 ft | 358 kts | 63° |
| 2026-04-24 00:44 | 4.81129 | -74.62132 | 16087 ft | 358 kts | 63° |
| 2026-04-24 00:45 | 4.82228 | -74.59903 | 15721 ft | 355 kts | 63° |
| 2026-04-24 00:45 | 4.83317 | -74.57700 | 15423 ft | 351 kts | 63° |
| 2026-04-24 00:45 | 4.84402 | -74.55508 | 15015 ft | 351 kts | 63° |
| 2026-04-24 00:45 | 4.85482 | -74.53326 | 14719 ft | 347 kts | 63° |
| 2026-04-24 00:46 | 4.86536 | -74.51200 | 14536 ft | 334 kts | 63° |
| 2026-04-24 00:46 | 4.87555 | -74.49139 | 14110 ft | 327 kts | 63° |
| 2026-04-24 00:46 | 4.88557 | -74.47106 | 13498 ft | 323 kts | 63° |
| 2026-04-24 00:46 | 4.89527 | -74.45116 | 13134 ft | 310 kts | 66° |
| 2026-04-24 00:47 | 4.90019 | -74.43069 | 12964 ft | 298 kts | 89° |
| 2026-04-24 00:47 | 4.89675 | -74.41073 | 12787 ft | 290 kts | 115° |
| 2026-04-24 00:47 | 4.88439 | -74.39486 | 12345 ft | 291 kts | 140° |
| 2026-04-24 00:47 | 4.86989 | -74.38065 | 11980 ft | 292 kts | 129° |
| 2026-04-24 00:48 | 4.85795 | -74.36459 | 11904 ft | 280 kts | 126° |
| 2026-04-24 00:48 | 4.84676 | -74.34920 | 11959 ft | 269 kts | 127° |
| 2026-04-24 00:48 | 4.83574 | -74.33458 | 11967 ft | 253 kts | 127° |
| 2026-04-24 00:48 | 4.82520 | -74.32070 | 11893 ft | 248 kts | 127° |
| 2026-04-24 00:49 | 4.81503 | -74.30728 | 11669 ft | 238 kts | 127° |
| 2026-04-24 00:49 | 4.80530 | -74.29442 | 11359 ft | 225 kts | 127° |
| 2026-04-24 00:49 | 4.79612 | -74.28228 | 11090 ft | 213 kts | 127° |
| 2026-04-24 00:49 | 4.78753 | -74.27094 | 10853 ft | 194 kts | 127° |
| 2026-04-24 00:50 | 4.77970 | -74.26059 | 10623 ft | 182 kts | 127° |
| 2026-04-24 00:50 | 4.77217 | -74.25064 | 10411 ft | 176 kts | 127° |
| 2026-04-24 00:50 | 4.76485 | -74.24097 | 10210 ft | 172 kts | 127° |
| 2026-04-24 00:50 | 4.75767 | -74.23150 | 9978 ft | 170 kts | 127° |
| 2026-04-24 00:51 | 4.75054 | -74.22208 | 9759 ft | 169 kts | 127° |
| 2026-04-24 00:51 | 4.74346 | -74.21274 | 9475 ft | 168 kts | 127° |
| 2026-04-24 00:51 | 4.73644 | -74.20341 | 9206 ft | 167 kts | 127° |
| 2026-04-24 00:51 | 4.72949 | -74.19406 | 8940 ft | 169 kts | 127° |
| 2026-04-24 00:52 | 4.72227 | -74.18471 | 8734 ft | 170 kts | 127° |
| 2026-04-24 00:52 | 4.71521 | -74.17528 | 8504 ft | 169 kts | 127° |
| 2026-04-24 00:52 | 4.70812 | -74.16595 | 8373 ft | 166 kts | 128° |
| 2026-04-24 00:52 | 4.70191 | -74.15779 | 8363 ft | 125 kts | 127° |
| 2026-04-24 00:53 | 4.69771 | -74.15227 | 8365 ft | 65 kts | 127° |
| 2026-04-24 00:53 | 4.69548 | -74.14933 | 8363 ft | 43 kts | 127° |
| 2026-04-24 00:53 | 4.69403 | -74.14740 | 8362 ft | 31 kts | 127° |
| 2026-04-24 00:53 | 4.69344 | -74.14625 | 8362 ft | 9 kts | 64° |
| 2026-04-24 00:54 | 4.69386 | -74.14593 | 8363 ft | 6 kts | 36° |
| 2026-04-24 00:54 | 4.69414 | -74.14573 | 8364 ft | 7 kts | 37° |
| 2026-04-24 00:54 | 4.69445 | -74.14550 | 8365 ft | 1 kts | 36° |
| 2026-04-24 00:54 | 4.69455 | -74.14543 | 8365 ft | 3 kts | 36° |
| 2026-04-24 00:55 | 4.69489 | -74.14521 | 8365 ft | 8 kts | 17° |
| 2026-04-24 00:55 | 4.69541 | -74.14565 | 8365 ft | 13 kts | 306° |
| 2026-04-24 00:55 | 4.69610 | -74.14655 | 8365 ft | 18 kts | 308° |
| 2026-04-24 00:55 | 4.69691 | -74.14763 | 8365 ft | 17 kts | 304° |
| 2026-04-24 00:56 | 4.69752 | -74.14803 | 8365 ft | 13 kts | 9° |
| 2026-04-24 00:56 | 4.69820 | -74.14758 | 8366 ft | 12 kts | 36° |
| 2026-04-24 00:56 | 4.69890 | -74.14706 | 8366 ft | 13 kts | 37° |
| 2026-04-24 00:56 | 4.69979 | -74.14639 | 8366 ft | 17 kts | 37° |
| 2026-04-24 00:57 | 4.70059 | -74.14572 | 8366 ft | 8 kts | 71° |
| 2026-04-24 00:57 | 4.70033 | -74.14528 | 8366 ft | 6 kts | 127° |
| 2026-04-24 00:57 | 4.69961 | -74.14432 | 8366 ft | 12 kts | 127° |
| 2026-04-24 00:58 | 4.69914 | -74.14371 | 8366 ft | 6 kts | 130° |
| 2026-04-24 00:58 | 4.69892 | -74.14378 | 8366 ft | 3 kts | 211° |
| 2026-04-24 00:58 | 4.69873 | -74.14399 | 8366 ft | 3 kts | 230° |
| 2026-04-24 00:58 | 4.69862 | -74.14412 | 8366 ft | 1 kts | 230° |
| 2026-04-24 00:59 | 4.69857 | -74.14418 | 8366 ft | 0 kts | 230° |
| 2026-04-24 00:59 | 4.69856 | -74.14419 | 8366 ft | 0 kts | 230° |